Time;durP1;ratioP1;P1;durP2;ratioP2;P2;SDS_P1;SDS_P2;PMS_P1;PMS_P2;Temp;Humidity;BMP_temperature;BMP_pressure;BME280_temperature;BME280_humidity;BME280_pressure;Samples;Min_cycle;Max_cycle;Signal;HPM_P1;HPM_P2
2022/05/02 00:00:46;;;;;;;0.20;0.20;;;10.30;99.90;;;10.29;100.00;100568.97;5010122;28;20212;-75
2022/05/02 00:03:14;;;;;;;0.20;0.20;;;10.30;99.90;;;10.26;100.00;100571.56;4990543;28;20204;-75
2022/05/02 00:05:43;;;;;;;0.73;0.73;;;10.30;99.90;;;10.29;100.00;100571.59;5007634;28;20234;-75
2022/05/02 00:08:11;;;;;;;0.20;0.20;;;10.30;99.90;;;10.22;100.00;100577.69;5008272;28;20564;-75
2022/05/02 00:10:39;;;;;;;0.20;0.20;;;10.20;99.90;;;10.19;100.00;100573.22;5011014;28;20219;-75
2022/05/02 00:13:09;;;;;;;0.20;0.20;;;10.20;99.90;;;10.13;100.00;100570.50;5006204;28;20208;-75
2022/05/02 00:15:38;;;;;;;0.10;0.10;;;10.20;99.90;;;10.12;100.00;100571.34;4987900;28;20235;-75
2022/05/02 00:18:07;;;;;;;0.10;0.10;;;10.10;99.90;;;10.14;100.00;100568.72;5001505;28;20212;-75
2022/05/02 00:20:37;;;;;;;0.10;0.10;;;10.10;99.90;;;10.11;100.00;100563.41;5007588;28;20208;-75
2022/05/02 00:23:10;;;;;;;0.10;0.10;;;10.10;99.90;;;10.04;100.00;100569.47;5006140;28;20234;-77
2022/05/02 00:25:39;;;;;;;0.10;0.10;;;10.00;99.90;;;10.12;100.00;100565.19;5002596;28;20231;-75
2022/05/02 00:28:14;;;;;;;0.10;0.10;;;10.00;99.90;;;10.08;100.00;100566.91;5002841;28;20706;-75
2022/05/02 00:30:43;;;;;;;0.10;0.10;;;10.10;99.90;;;10.07;100.00;100567.78;4985907;28;20199;-74
2022/05/02 00:33:11;;;;;;;0.20;0.20;;;10.00;99.90;;;10.05;100.00;100560.69;5005002;28;20222;-75
2022/05/02 00:35:39;;;;;;;0.15;0.15;;;10.00;99.90;;;10.07;100.00;100558.94;5008377;28;20239;-77
2022/05/02 00:38:07;;;;;;;0.10;0.10;;;10.00;99.90;;;10.13;100.00;100566.97;5008029;28;20211;-78
2022/05/02 00:40:35;;;;;;;0.10;0.10;;;12.30;99.90;;;10.11;100.00;100561.66;5006665;28;20207;-75
2022/05/02 00:43:03;;;;;;;0.10;0.10;;;10.00;99.90;;;10.07;100.00;100564.25;5010937;28;20653;-75
2022/05/02 00:45:39;;;;;;;0.10;0.10;;;10.00;99.90;;;10.06;100.00;100568.63;5010374;28;20227;-74
2022/05/02 00:48:08;;;;;;;0.10;0.10;;;10.00;99.90;;;10.03;100.00;100558.03;5008198;28;20208;-75
2022/05/02 00:50:44;;;;;;;0.10;0.10;;;10.00;99.90;;;10.04;100.00;100554.53;5007468;28;20720;-75
2022/05/02 00:53:18;;;;;;;0.20;0.20;;;10.00;99.90;;;9.91;100.00;100565.78;5013704;28;20203;-75
2022/05/02 00:55:47;;;;;;;0.20;0.20;;;9.90;99.90;;;9.89;100.00;100576.34;5009996;28;20238;-75
2022/05/02 00:58:16;;;;;;;0.10;0.10;;;9.90;99.90;;;9.98;100.00;100574.69;5011844;28;20216;-75
2022/05/02 01:00:44;;;;;;;0.10;0.10;;;9.90;99.90;;;9.86;100.00;100564.84;5010209;28;20556;-75
2022/05/02 01:03:13;;;;;;;0.20;0.20;;;9.90;99.90;;;9.84;100.00;100574.50;5005156;28;20219;-76
2022/05/02 01:08:35;;;;;;;0.10;0.10;;;9.80;99.90;;;9.77;100.00;100570.88;5008778;28;20218;-75
2022/05/02 01:11:04;;;;;;;0.10;0.10;;;9.80;99.90;;;9.73;100.00;100578.72;4993375;28;20570;-75
2022/05/02 01:13:49;;;;;;;0.10;0.10;;;9.70;99.90;;;9.73;100.00;100574.34;5010063;28;20207;-75
2022/05/02 01:16:21;;;;;;;0.10;0.10;;;9.70;99.90;;;9.68;100.00;100581.31;5007682;28;20224;-75
2022/05/02 01:18:56;;;;;;;0.20;0.20;;;9.70;99.90;;;9.58;100.00;100579.41;5009473;28;20208;-75
2022/05/02 01:21:29;;;;;;;0.10;0.10;;;9.70;99.90;;;9.57;100.00;100581.16;5009276;28;20226;-75
2022/05/02 01:24:02;;;;;;;0.10;0.10;;;9.60;99.90;;;9.55;100.00;100585.50;5015728;28;20208;-75
2022/05/02 01:26:31;;;;;;;0.20;0.20;;;9.60;99.90;;;9.61;100.00;100597.94;5009281;28;20230;-75
2022/05/02 01:29:01;;;;;;;0.20;0.20;;;9.60;99.90;;;9.47;100.00;100587.16;5003999;28;20208;-75
2022/05/02 01:31:29;;;;;;;0.20;0.20;;;9.60;99.90;;;9.46;100.00;100595.94;5008501;28;20208;-75
2022/05/02 01:33:59;;;;;;;0.10;0.10;;;;;;;9.48;100.00;100606.50;4993745;28;20578;-76
2022/05/02 01:36:28;;;;;;;0.15;0.15;;;9.50;99.90;;;9.43;100.00;100608.19;5003464;28;20228;-76
2022/05/02 01:38:56;;;;;;;0.20;0.20;;;;;;;9.42;100.00;100611.69;5010174;28;20211;-78
2022/05/02 01:41:24;;;;;;;0.20;0.20;;;9.40;99.90;;;9.46;100.00;100617.06;5011507;28;20212;-76
2022/05/02 01:43:52;;;;;;;0.10;0.10;;;9.50;99.90;;;9.45;100.00;100607.34;5015948;28;20215;-76
2022/05/02 01:46:20;;;;;;;0.10;0.10;;;9.40;99.90;;;9.42;100.00;100615.22;5014291;28;20223;-75
2022/05/02 01:48:48;;;;;;;0.20;0.20;;;;;;;9.38;100.00;100613.41;4993544;28;20208;-75
2022/05/02 01:51:16;;;;;;;0.13;0.13;;;9.40;99.90;;;9.42;100.00;100609.94;5015332;28;20235;-75
2022/05/02 01:53:44;;;;;;;0.20;0.20;;;9.30;99.90;;;9.40;100.00;100611.66;5008390;28;20209;-75
2022/05/02 01:56:12;;;;;;;0.20;0.20;;;9.40;99.90;;;9.40;100.00;100613.41;5012701;28;20242;-75
2022/05/02 01:58:41;;;;;;;0.10;0.10;;;;;;;9.33;100.00;100609.78;5013907;28;20284;-76
2022/05/02 02:01:09;;;;;;;0.20;0.20;;;9.30;99.90;;;9.32;100.00;100620.31;5011724;28;20203;-75
2022/05/02 02:03:37;;;;;;;0.20;0.20;;;9.30;99.90;;;9.38;100.00;100623.06;5010680;28;20215;-75
2022/05/02 02:06:05;;;;;;;0.10;0.10;;;9.30;99.90;;;9.39;100.00;100628.38;5016030;28;20224;-75
2022/05/02 02:08:35;;;;;;;0.10;0.10;;;9.30;99.90;;;9.30;100.00;100623.81;5020221;28;20212;-75
2022/05/02 02:11:06;;;;;;;0.10;0.10;;;9.20;99.90;;;9.21;100.00;100623.66;5011477;28;20227;-75
2022/05/02 02:13:36;;;;;;;0.10;0.10;;;9.20;99.90;;;9.22;100.00;100633.34;5015814;28;20234;-75
2022/05/02 02:16:09;;;;;;;0.20;0.20;;;9.20;99.90;;;9.24;100.00;100630.75;5012554;28;20228;-75
2022/05/02 02:18:38;;;;;;;0.10;0.10;;;9.20;99.90;;;9.19;100.00;100617.47;5017384;28;20234;-75
2022/05/02 02:21:11;;;;;;;0.10;0.10;;;9.20;99.90;;;9.19;100.00;100627.13;5020692;28;20207;-75
2022/05/02 02:23:39;;;;;;;0.10;0.10;;;9.20;99.90;;;9.18;100.00;100626.25;5009705;28;20695;-75
2022/05/02 02:26:07;;;;;;;0.10;0.10;;;9.20;99.90;;;9.16;100.00;100627.97;4996971;28;20589;-76
2022/05/02 02:28:35;;;;;;;0.10;0.10;;;9.20;99.90;;;9.06;100.00;100633.03;4995964;28;20247;-75
2022/05/02 02:31:03;;;;;;;0.20;0.20;;;9.20;99.90;;;9.14;100.00;100637.63;4979934;28;20224;-75
2022/05/02 02:33:31;;;;;;;0.10;0.10;;;9.10;99.90;;;9.07;100.00;100637.44;5013813;28;20214;-75
2022/05/02 02:35:59;;;;;;;0.20;0.20;;;9.10;99.90;;;9.09;100.00;100649.78;4996868;28;20227;-75
2022/05/02 02:38:27;;;;;;;0.10;0.10;;;9.10;99.90;;;9.12;100.00;100641.09;5012376;28;20211;-75
2022/05/02 02:40:55;;;;;;;0.10;0.10;;;9.10;99.90;;;9.11;100.00;100645.47;5012346;28;20208;-75
2022/05/02 02:43:23;;;;;;;0.20;0.20;;;9.10;99.90;;;9.11;100.00;100640.19;5011288;28;20199;-75
2022/05/02 02:45:51;;;;;;;0.10;0.10;;;9.10;99.90;;;9.02;100.00;100649.66;5012264;28;20234;-75
2022/05/02 02:48:19;;;;;;;0.10;0.10;;;9.00;99.90;;;9.07;100.00;100648.00;5011577;28;20570;-75
2022/05/02 02:50:47;;;;;;;0.10;0.10;;;9.00;99.90;;;8.99;100.00;100647.84;5012048;28;20603;-75
2022/05/02 02:53:15;;;;;;;0.20;0.20;;;9.00;99.90;;;8.99;100.00;100653.13;5014730;28;20215;-74
2022/05/02 02:55:43;;;;;;;0.10;0.10;;;9.00;99.90;;;8.97;100.00;100654.84;5015790;28;20231;-75
2022/05/02 02:58:11;;;;;;;0.20;0.20;;;8.90;99.90;;;8.91;100.00;100660.91;5013294;28;20192;-75
2022/05/02 03:00:39;;;;;;;0.10;0.10;;;8.90;99.90;;;8.97;100.00;100663.66;5015143;28;20211;-75
2022/05/02 03:03:08;;;;;;;0.10;0.10;;;8.90;99.90;;;8.92;100.00;100654.75;5012295;28;20206;-76
2022/05/02 03:08:22;;;;;;;0.10;0.10;;;8.90;99.90;;;8.89;100.00;100664.38;4992486;28;20294;-75
2022/05/02 03:10:52;;;;;;;0.20;0.20;;;8.80;99.90;;;8.87;100.00;100674.00;5009658;28;20235;-75
2022/05/02 03:13:21;;;;;;;0.10;0.10;;;8.90;99.90;;;8.84;100.00;100673.94;5009678;28;20239;-74
2022/05/02 03:15:49;;;;;;;0.10;0.10;;;8.80;99.90;;;8.85;100.00;100675.72;5009600;28;20238;-75
2022/05/02 03:18:17;;;;;;;0.10;0.10;;;8.80;99.90;;;8.79;100.00;100670.31;5011298;28;20216;-75
2022/05/02 03:20:45;;;;;;;0.10;0.10;;;8.80;99.90;;;8.81;100.00;100676.50;5011874;28;20214;-75
2022/05/02 03:23:14;;;;;;;0.10;0.10;;;8.80;99.90;;;8.80;100.00;100677.38;5010618;28;20207;-75
2022/05/02 03:25:42;;;;;;;0.10;0.10;;;8.80;99.90;;;8.74;100.00;100683.41;5008124;28;20255;-75
2022/05/02 03:28:10;;;;;;;0.20;0.20;;;8.80;99.90;;;8.74;100.00;100679.88;5012683;28;20208;-75
2022/05/02 03:30:38;;;;;;;0.13;0.13;;;8.70;99.90;;;8.72;100.00;100684.22;5013225;28;20236;-75
2022/05/02 03:33:06;;;;;;;0.10;0.10;;;8.70;99.90;;;8.72;100.00;100685.13;5012428;28;20203;-75
2022/05/02 03:35:34;;;;;;;0.10;0.10;;;8.70;99.90;;;8.71;100.00;100687.72;5005862;28;20232;-75
2022/05/02 03:38:02;;;;;;;0.10;0.10;;;8.70;99.90;;;8.68;100.00;100678.00;5011625;28;20212;-76
2022/05/02 03:40:30;;;;;;;0.20;0.20;;;7.80;99.90;;;8.62;100.00;100684.03;5010236;28;20216;-75
2022/05/02 03:42:58;;;;;;;0.20;0.20;;;;;;;8.58;100.00;100697.13;5016211;28;20204;-76
2022/05/02 03:45:27;;;;;;;0.20;0.20;;;8.60;99.90;;;8.55;100.00;100691.78;5010599;28;20567;-75
2022/05/02 03:48:04;;;;;;;0.20;0.20;;;8.60;99.90;;;8.57;100.00;100698.00;5008916;28;20671;-75
2022/05/02 03:50:32;;;;;;;0.20;0.20;;;8.60;99.90;;;8.53;100.00;100697.03;5010046;28;20222;-74
2022/05/02 03:53:00;;;;;;;0.17;0.17;;;8.60;99.90;;;8.61;100.00;100699.84;5003657;28;20204;-75
2022/05/02 03:55:28;;;;;;;0.20;0.20;;;8.60;99.90;;;8.53;100.00;100704.06;5003657;28;20659;-74
2022/05/02 03:57:56;;;;;;;0.20;0.20;;;8.60;99.90;;;8.54;100.00;100706.72;5003712;28;20204;-75
2022/05/02 04:00:24;;;;;;;0.20;0.20;;;8.60;99.90;;;8.47;100.00;100711.81;4986578;28;20203;-75
2022/05/02 04:02:52;;;;;;;0.20;0.20;;;8.60;99.90;;;8.53;100.00;100719.88;5004262;28;20212;-75
2022/05/02 04:05:21;;;;;;;0.20;0.20;;;8.60;99.90;;;8.47;100.00;100715.34;5008116;28;20212;-75
2022/05/02 04:07:49;;;;;;;0.20;0.20;;;8.60;99.90;;;8.45;100.00;100716.19;4990290;28;20216;-74
2022/05/02 04:10:17;;;;;;;0.20;0.20;;;8.50;99.90;;;8.43;100.00;100717.88;5005305;28;20208;-75
2022/05/02 04:12:44;;;;;;;0.10;0.10;;;8.60;99.90;;;8.39;100.00;100716.03;5005660;28;20231;-75
2022/05/02 04:15:13;;;;;;;0.10;0.10;;;8.50;99.90;;;8.40;100.00;100729.25;5007224;28;20212;-75
2022/05/02 04:17:42;;;;;;;0.20;0.20;;;8.50;99.90;;;8.41;100.00;100738.03;5006086;28;20223;-75
2022/05/02 04:20:11;;;;;;;0.20;0.20;;;8.50;99.90;;;8.48;100.00;100748.75;5007635;28;20212;-75
2022/05/02 04:22:40;;;;;;;0.10;0.10;;;8.50;99.90;;;8.53;100.00;100751.50;5006025;28;20208;-76
2022/05/02 04:25:09;;;;;;;0.20;0.20;;;8.50;99.90;;;8.57;100.00;100755.97;5006706;28;20204;-78
2022/05/02 04:27:37;;;;;;;0.20;0.20;;;;;;;8.60;100.00;100753.41;4988770;28;20235;-77
2022/05/02 04:30:06;;;;;;;0.20;0.20;;;8.50;99.90;;;8.60;100.00;100756.06;5006890;28;20228;-77
2022/05/02 04:32:34;;;;;;;0.20;0.20;;;8.60;99.90;;;8.59;100.00;100752.53;5010522;28;20232;-76
2022/05/02 04:35:04;;;;;;;0.20;0.20;;;8.60;99.90;;;8.60;100.00;100750.78;5005581;28;20196;-77
2022/05/02 04:37:32;;;;;;;0.35;0.35;;;8.60;99.90;;;8.69;100.00;100760.63;5007523;28;20232;-81
2022/05/02 04:40:00;;;;;;;0.10;0.10;;;8.60;99.90;;;8.70;100.00;100751.88;5005355;28;20662;-80
2022/05/02 04:42:28;;;;;;;0.20;0.20;;;8.70;99.90;;;8.76;100.00;100759.91;5007390;28;20195;-83
2022/05/02 04:44:56;;;;;;;0.10;0.10;;;8.70;99.90;;;8.75;100.00;100761.66;4988521;28;20215;-76
2022/05/02 04:47:24;;;;;;;0.10;0.10;;;8.70;99.90;;;8.77;100.00;100762.56;5006095;28;20223;-76
2022/05/02 04:49:57;;;;;;;0.20;0.20;;;8.70;99.90;;;8.79;100.00;100765.25;5004028;28;20204;-76
2022/05/02 04:52:25;;;;;;;0.20;0.20;;;8.80;99.90;;;8.85;100.00;100782.09;5010951;28;20230;-77
2022/05/02 04:54:53;;;;;;;0.20;0.20;;;8.80;99.90;;;8.87;100.00;100780.38;5013675;28;20672;-80
2022/05/02 04:57:21;;;;;;;0.20;0.20;;;8.80;99.90;;;8.92;100.00;100784.00;5011201;28;20619;-78
2022/05/02 04:59:49;;;;;;;0.10;0.10;;;8.90;99.90;;;8.89;100.00;100781.28;5007101;28;20215;-77
2022/05/02 05:02:17;;;;;;;0.20;0.20;;;8.80;99.90;;;8.91;100.00;100789.25;5007418;28;20211;-78
2022/05/02 05:04:45;;;;;;;0.20;0.20;;;8.90;99.90;;;8.93;100.00;100788.41;5008375;28;20211;-76
2022/05/02 05:07:14;;;;;;;0.10;0.10;;;8.90;99.90;;;8.98;100.00;100792.03;5007802;28;20223;-79
2022/05/02 05:09:42;;;;;;;0.10;0.10;;;8.90;99.90;;;8.95;100.00;100785.81;5007202;28;20207;-78
2022/05/02 05:12:26;;;;;;;0.20;0.20;;;8.90;99.90;;;8.98;100.00;100792.03;5008980;28;20228;-77
2022/05/02 05:18:32;;;;;;;0.20;0.20;;;9.00;99.90;;;9.17;100.00;100803.00;5004713;28;20204;-76
2022/05/02 05:21:06;;;;;;;0.20;0.20;;;9.00;99.90;;;9.21;100.00;100805.75;4996525;28;20204;-75
2022/05/02 05:24:08;;;;;;;0.20;0.20;;;9.10;99.90;;;9.39;100.00;100817.53;4998182;28;20208;-76
2022/05/02 05:27:27;;;;;;;0.10;0.10;;;9.20;99.90;;;9.51;100.00;100815.13;5001524;28;20232;-76
2022/05/02 05:30:08;;;;;;;0.10;0.10;;;9.30;99.90;;;9.62;100.00;100818.88;4988893;28;20196;-75
2022/05/02 05:33:21;;;;;;;0.10;0.10;;;9.30;99.90;;;9.65;100.00;100828.59;5006529;28;20224;-76
2022/05/02 05:36:35;;;;;;;0.10;0.10;;;9.40;99.90;;;9.74;100.00;100828.75;5002299;28;20223;-76
2022/05/02 05:39:05;;;;;;;0.20;0.20;;;9.60;99.90;;;9.84;100.00;100834.25;5026554;28;20210;-76
2022/05/02 05:42:07;;;;;;;0.10;0.10;;;9.60;99.90;;;9.97;100.00;100837.09;5009788;28;20223;-76
2022/05/02 05:44:51;;;;;;;0.10;0.10;;;9.70;99.90;;;10.06;100.00;100848.72;5008816;28;20206;-79
2022/05/02 05:47:51;;;;;;;0.10;0.10;;;9.90;99.90;;;10.10;100.00;100847.03;5008669;28;20223;-76
2022/05/02 05:50:26;;;;;;;0.10;0.10;;;9.90;99.90;;;10.26;100.00;100835.88;5009546;28;20204;-75
2022/05/02 05:53:40;;;;;;;0.10;0.10;;;10.00;99.90;;;10.42;100.00;100830.03;4992843;28;20235;-75
2022/05/02 05:56:31;;;;;;;0.17;0.17;;;10.10;99.90;;;10.55;100.00;100818.75;5008155;28;20707;-76
2022/05/02 05:59:21;;;;;;;0.10;0.10;;;10.20;99.90;;;10.74;100.00;100808.44;5009801;28;20208;-76
2022/05/02 06:02:23;;;;;;;0.17;0.17;;;10.40;99.90;;;10.78;100.00;100815.56;4991831;28;20203;-76
2022/05/02 06:04:51;;;;;;;0.10;0.10;;;10.50;99.90;;;10.89;100.00;100806.91;4994445;28;20199;-76
2022/05/02 06:07:21;;;;;;;0.10;0.10;;;10.60;99.90;;;10.97;100.00;100795.53;5006642;28;20235;-77
2022/05/02 06:09:50;;;;;;;0.10;0.10;;;10.70;99.90;;;11.06;100.00;100769.19;5006442;28;20208;-76
2022/05/02 06:12:20;;;;;;;0.10;0.10;;;10.80;99.90;;;11.03;100.00;100759.47;4992330;28;20227;-75
2022/05/02 06:20:29;;;;;;;0.40;0.40;;;11.00;99.90;;;11.33;100.00;100742.16;5006164;28;20204;-79
2022/05/02 06:22:59;;;;;;;1.98;0.90;;;11.10;99.90;;;11.36;100.00;100734.22;5000324;28;20211;-77
2022/05/02 06:25:36;;;;;;;0.20;0.20;;;11.10;99.90;;;11.39;100.00;100739.56;5004488;28;20200;-76
2022/05/02 06:28:06;;;;;;;0.10;0.10;;;11.20;99.90;;;11.50;100.00;100735.25;5012058;28;20212;-79
2022/05/02 06:30:37;;;;;;;0.10;0.10;;;11.20;99.90;;;11.53;100.00;100730.00;5009086;28;20208;-76
2022/05/02 06:33:13;;;;;;;1.13;1.13;;;11.30;99.90;;;11.52;100.00;100717.63;4992119;28;20246;-77
2022/05/02 06:36:10;;;;;;;0.10;0.10;;;11.40;99.90;;;11.63;100.00;100733.63;5002147;28;20223;-76
2022/05/02 06:39:03;;;;;;;0.15;0.15;;;11.40;99.90;;;11.55;100.00;100715.00;4993548;28;20207;-77
2022/05/02 06:42:02;;;;;;;0.00;0.00;;;11.40;99.90;;;11.73;100.00;100732.88;4992079;28;20215;-75
2022/05/02 06:45:18;;;;;;;0.10;0.10;;;11.50;99.90;;;11.90;100.00;100738.34;5011645;28;20287;-76
2022/05/02 06:48:37;;;;;;;0.10;0.10;;;11.60;99.90;;;12.02;100.00;100744.63;5006386;28;20208;-75
2022/05/02 06:51:14;;;;;;;0.10;0.10;;;11.70;99.90;;;12.16;100.00;100735.03;5008468;28;20214;-78
2022/05/02 06:54:29;;;;;;;0.10;0.10;;;11.80;99.90;;;12.21;100.00;100736.81;4993484;28;20235;-76
2022/05/02 06:57:38;;;;;;;0.10;0.10;;;11.90;99.90;;;12.29;100.00;100740.41;5002084;28;20224;-79
2022/05/02 07:00:10;;;;;;;0.10;0.10;;;12.00;99.90;;;12.54;100.00;100762.69;5003649;28;20211;-77
2022/05/02 07:03:15;;;;;;;0.20;0.20;;;12.20;99.90;;;12.42;100.00;100726.34;5012671;28;20239;-77
2022/05/02 07:06:08;;;;;;;0.43;0.43;;;12.20;99.90;;;12.52;100.00;100720.22;4993734;28;20238;-76
2022/05/02 07:09:04;;;;;;;0.10;0.10;;;12.30;99.90;;;12.54;100.00;100721.13;5008496;28;20447;-76
2022/05/02 07:12:02;;;;;;;0.10;0.10;;;12.40;99.90;;;12.80;100.00;100742.47;4993277;28;20216;-77
2022/05/02 07:14:49;;;;;;;0.10;0.10;;;12.50;99.90;;;12.65;100.00;100711.44;4995046;28;20217;-77
2022/05/02 07:17:42;;;;;;;0.30;0.30;;;12.50;99.90;;;13.02;100.00;100744.38;4990180;28;20242;-76
2022/05/02 07:20:50;;;;;;;0.15;0.15;;;12.70;99.90;;;12.95;100.00;100708.03;4996780;28;20215;-77
2022/05/02 07:23:58;;;;;;;0.10;0.10;;;12.80;99.90;;;12.99;100.00;100709.81;5011264;28;20700;-75
2022/05/02 07:26:28;;;;;;;0.25;0.25;;;12.90;99.90;;;13.18;100.00;100715.25;5000712;28;20235;-75
2022/05/02 07:29:01;;;;;;;0.10;0.10;;;13.00;99.90;;;13.13;100.00;100700.16;4995965;28;20666;-75
2022/05/02 07:31:29;;;;;;;0.17;0.17;;;13.00;99.90;;;13.33;100.00;100694.06;5012514;28;20666;-77
2022/05/02 07:33:58;;;;;;;0.10;0.10;;;13.20;99.90;;;13.36;100.00;100686.97;4994848;28;20208;-81
2022/05/02 07:36:27;;;;;;;0.10;0.10;;;13.30;99.90;;;13.65;100.00;100692.31;4993550;28;20231;-82
2022/05/02 07:39:02;;;;;;;0.10;0.10;;;13.40;99.90;;;13.73;100.00;100697.63;5012095;28;20204;-76
2022/05/02 07:41:33;;;;;;;0.10;0.10;;;13.60;99.90;;;13.82;100.00;100699.41;5010972;28;20227;-75
2022/05/02 07:44:07;;;;;;;0.10;0.10;;;13.50;99.90;;;13.56;100.00;100659.53;5004692;28;20216;-78
2022/05/02 07:46:42;;;;;;;0.10;0.10;;;13.70;99.90;;;13.72;100.00;100662.19;5006388;28;20238;-78
2022/05/02 07:49:16;;;;;;;0.10;0.10;;;13.80;99.90;;;13.99;100.00;100687.00;5003596;28;20199;-77
2022/05/02 07:51:50;;;;;;;0.00;0.00;;;14.00;99.90;;;14.24;100.00;100683.41;4990742;28;20214;-80
2022/05/02 07:54:30;;;;;;;0.00;0.00;;;14.20;99.90;;;14.27;100.00;100648.81;5004463;28;20208;-76
2022/05/02 07:57:02;;;;;;;0.10;0.10;;;14.20;99.90;;;14.15;100.00;100619.59;4996740;28;20216;-78
2022/05/02 07:59:42;;;;;;;0.20;0.20;;;14.10;99.90;;;14.21;100.00;100640.84;5008706;28;20692;-76
2022/05/02 08:02:11;;;;;;;0.00;0.00;;;;;;;14.40;100.00;100631.97;5008758;28;20214;-76
2022/05/02 08:04:42;;;;;;;0.45;0.45;;;;;;;14.23;100.00;100592.97;5007992;28;20195;-76
2022/05/02 08:07:18;;;;;;;0.10;0.10;;;14.10;99.90;;;14.08;100.00;100559.34;5009237;28;20220;-77
2022/05/02 08:10:12;;;;;;;0.10;0.10;;;14.20;99.90;;;14.40;100.00;100592.06;4990844;28;20212;-81
2022/05/02 08:12:48;;;;;;;0.30;0.30;;;;;;;14.52;100.00;100580.50;5006382;28;20218;-79
2022/05/02 08:15:50;;;;;;;0.20;0.20;;;14.60;99.90;;;14.82;100.00;100589.22;4992774;28;20223;-80
2022/05/02 08:18:36;;;;;;;0.10;0.10;;;14.60;99.90;;;15.02;100.00;100587.31;4992445;28;20226;-78
2022/05/02 08:21:35;;;;;;;0.10;0.10;;;14.90;99.90;;;15.02;100.00;100574.88;5006947;28;20223;-76
2022/05/02 08:27:55;;;;;;;0.00;0.00;;;14.90;99.90;;;15.35;100.00;100563.09;5006064;28;20227;-76
2022/05/02 08:30:25;;;;;;;0.00;0.00;;;15.20;99.90;;;15.43;100.00;100531.03;4999248;28;20207;-76
2022/05/02 08:33:08;;;;;;;0.10;0.10;;;15.20;99.90;;;15.34;100.00;100509.81;4989454;28;20212;-76
2022/05/02 08:36:01;;;;;;;0.03;0.03;;;15.50;99.90;;;15.80;100.00;100538.72;5008027;28;20235;-79
2022/05/02 08:39:03;;;;;;;0.10;0.10;;;15.50;99.90;;;15.46;98.66;100474.16;5006205;28;20208;-76
2022/05/02 08:41:53;;;;;;;0.10;0.10;;;15.70;99.90;;;16.16;96.79;100516.09;5005110;28;20207;-77
2022/05/02 08:45:13;;;;;;;1.20;0.90;;;15.90;99.90;;;15.51;95.87;100408.38;5005033;28;20228;-77
2022/05/02 08:47:58;;;;;;;0.00;0.00;;;15.70;99.90;;;15.79;96.18;100439.19;4991531;28;20200;-78
2022/05/02 08:50:55;;;;;;;0.10;0.10;;;16.20;99.90;;;16.80;94.82;100502.75;5010308;28;20227;-76
2022/05/02 08:54:09;;;;;;;0.03;0.03;;;16.50;99.90;;;16.21;93.98;100397.72;5005228;28;20223;-81
2022/05/02 08:56:55;;;;;;;0.10;0.10;;;16.60;99.90;;;16.18;90.58;100341.72;4979207;28;20227;-78
2022/05/02 09:00:05;;;;;;;0.10;0.10;;;16.50;99.90;;;16.52;92.59;100410.59;5005781;28;20204;-79
2022/05/02 09:03:03;;;;;;;0.15;0.15;;;16.70;99.90;;;16.59;91.05;100382.91;5002521;28;20219;-78
2022/05/02 09:05:50;;;;;;;0.10;0.10;;;17.00;99.90;;;17.05;90.67;100408.88;5005509;28;20235;-79
2022/05/02 09:08:28;;;;;;;0.10;0.10;;;17.20;99.90;;;17.13;90.28;100377.56;5005449;28;20571;-80
2022/05/02 09:11:32;;;;;;;0.10;0.10;;;17.20;99.90;;;17.29;91.59;100413.78;5007395;28;20227;-80
2022/05/02 09:14:27;;;;;;;0.00;0.00;;;17.50;99.90;;;17.34;88.61;100354.91;5002252;28;20207;-78
2022/05/02 09:17:41;;;;;;;0.20;0.20;;;17.90;99.90;;;17.85;85.45;100339.56;4998547;28;20231;-81
2022/05/02 09:20:32;;;;;;;0.00;0.00;;;17.90;99.90;;;17.56;86.99;100316.09;4995324;28;20211;-79
2022/05/02 09:23:20;;;;;;;0.00;0.00;;;18.00;99.90;;;17.68;87.90;100331.91;4981007;28;20238;-78
2022/05/02 09:25:57;;;;;;;0.00;0.00;;;18.20;99.90;;;18.07;87.53;100342.66;4997169;28;20228;-82
2022/05/02 09:28:38;;;;;;;0.10;0.10;;;18.30;99.90;;;18.07;84.99;100299.81;5002799;28;20211;-81
2022/05/02 09:31:38;;;;;;;0.00;0.00;;;15.60;99.90;;;18.28;87.12;100328.78;4991025;28;20204;-80
2022/05/02 09:34:37;;;;;;;0.10;0.10;;;18.90;99.90;;;18.38;84.54;100267.88;5001339;28;20211;-78
2022/05/02 09:37:13;;;;;;;0.05;0.05;;;18.90;99.90;;;18.20;83.87;100229.94;4987806;28;20219;-79
2022/05/02 09:39:47;;;;;;;0.08;0.08;;;18.80;99.90;;;18.30;83.92;100230.59;4986807;28;20694;-79
2022/05/02 09:42:40;;;;;;;0.00;0.00;;;18.90;99.90;;;18.42;82.23;100224.91;5007808;28;20210;-80
2022/05/02 09:51:56;;;;;;;0.00;0.00;;;19.90;99.90;;;19.19;84.36;100278.16;5004385;28;20212;-78
2022/05/02 09:58:53;;;;;;;0.00;0.00;;;20.00;99.90;;;19.23;85.75;100252.16;4989643;28;20212;-84
2022/05/02 10:01:27;;;;;;;0.10;0.10;;;19.60;99.90;;;18.71;81.13;100111.66;4988139;28;20197;-76
2022/05/02 10:04:25;;;;;;;0.28;0.28;;;19.90;99.90;;;18.64;78.71;100035.09;4987612;28;20239;-79
2022/05/02 10:06:55;;;;;;;0.00;0.00;;;19.70;99.90;;;18.98;84.34;100155.50;5008438;28;20735;-78
2022/05/02 10:10:03;;;;;;;0.20;0.20;;;19.90;99.90;;;19.16;82.15;100140.66;5010971;28;20215;-77
2022/05/02 10:12:46;;;;;;;0.00;0.00;;;;;;;20.12;82.92;100256.56;5011096;28;20569;-79
2022/05/02 10:15:25;;;;;;;0.30;0.30;;;20.20;99.90;;;19.68;82.16;100171.25;5015862;28;20238;-79
2022/05/02 10:18:25;;;;;;;0.00;0.00;;;20.70;99.90;;;19.98;80.99;100174.75;5012866;28;20218;-86
2022/05/02 10:21:39;;;;;;;0.00;0.00;;;20.60;99.90;;;19.75;78.32;100090.53;4996709;28;20200;-83
2022/05/02 10:24:43;;;;;;;0.70;0.70;;;20.40;99.90;;;19.72;81.59;100108.53;5008025;28;20227;-87
2022/05/02 10:27:35;;;;;;;0.00;0.00;;;20.60;99.90;;;20.00;78.57;100105.78;5011220;28;20246;-78
2022/05/02 10:30:11;;;;;;;0.15;0.15;;;20.80;99.90;;;19.97;76.54;100045.03;5004677;28;20208;-78
2022/05/02 10:32:56;;;;;;;0.08;0.08;;;21.00;99.90;;;20.13;76.28;100043.56;5009787;28;20215;-83
2022/05/02 10:35:26;;;;;;;0.00;0.00;;;20.50;99.90;;;19.43;76.12;99953.88;5006396;28;20208;-80
2022/05/02 10:38:02;;;;;;;0.00;0.00;;;20.70;99.90;;;20.06;76.96;100038.47;4993056;28;20203;-80
2022/05/02 10:40:39;;;;;;;0.00;0.00;;;20.80;99.90;;;20.07;74.99;99992.78;5011044;28;20207;-77
2022/05/02 10:43:11;;;;;;;0.00;0.00;;;20.90;99.90;;;20.12;75.13;99977.38;5011223;28;20296;-78
2022/05/02 10:45:41;;;;;;;0.08;0.08;;;20.90;99.90;;;20.19;75.75;99987.88;4996149;28;20578;-78
2022/05/02 10:48:50;;;;;;;0.00;0.00;;;20.60;99.90;;;19.69;73.73;99883.28;5011560;28;20210;-77
2022/05/02 10:51:33;;;;;;;0.30;0.30;;;21.00;99.90;;;20.93;75.05;100059.41;4999819;28;20204;-77
2022/05/02 10:54:14;;;;;;;0.00;0.00;;;21.20;99.90;;;20.31;75.77;99949.81;5005477;28;20203;-81
2022/05/02 10:56:45;;;;;;;0.00;0.00;;;21.40;99.90;;;20.55;74.39;99967.69;5008858;28;20223;-78
2022/05/02 10:59:15;;;;;;;0.00;0.00;;;21.30;99.90;;;19.98;73.05;99834.75;5011162;28;20195;-82
2022/05/02 11:02:14;;;;;;;0.00;0.00;;;21.60;99.90;;;20.87;73.99;99969.13;5010597;28;20218;-78
2022/05/02 11:05:07;;;;;;;0.00;0.00;;;21.80;99.90;;;20.71;73.35;99907.03;5008863;28;20230;-80
2022/05/02 11:08:05;;;;;;;0.00;0.00;;;21.70;99.90;;;21.19;72.54;99951.66;4993180;28;20262;-77
2022/05/02 11:11:05;;;;;;;0.00;0.00;;;22.00;99.90;;;21.31;71.07;99929.66;4993188;28;20203;-82
2022/05/02 11:13:54;;;;;;;0.10;0.10;;;22.30;99.90;;;21.51;69.40;99885.75;5007697;28;20211;-81
2022/05/02 11:16:47;;;;;;;0.10;0.10;;;22.60;99.90;;;21.08;68.56;99768.44;4985047;28;20238;-82
2022/05/02 11:22:34;;;;;;;0.00;0.00;;;22.80;99.90;;;22.05;66.99;99849.22;5009091;28;20218;-78
2022/05/02 11:25:18;;;;;;;0.10;0.10;;;23.00;99.90;;;22.48;68.16;99901.06;5008218;28;20563;-76
2022/05/02 11:28:01;;;;;;;0.70;0.70;;;23.00;99.90;;;22.11;66.98;99803.16;4992432;28;20207;-78
2022/05/02 11:30:44;;;;;;;0.00;0.00;;;23.00;99.90;;;21.36;67.66;99682.91;5008422;28;20207;-75
2022/05/02 11:33:30;;;;;;;0.00;0.00;;;23.00;99.90;;;21.93;66.23;99756.41;5009472;28;20207;-77